sensor_id;sensor_type;location;lat;lon;timestamp;pressure;altitude;pressure_sealevel;temperature;humidity
63652;BME280;49801;37.536;-122.304;2022-12-07T00:00:24;101723.25;;;12.70;61.30
63652;BME280;49801;37.536;-122.304;2022-12-07T00:00:50;101725.59;;;12.65;61.19
63652;BME280;49801;37.536;-122.304;2022-12-07T00:01:17;101729.50;;;12.62;61.23
63652;BME280;49801;37.536;-122.304;2022-12-07T00:01:44;101726.97;;;12.61;61.17
63652;BME280;49801;37.536;-122.304;2022-12-07T00:02:10;101730.34;;;12.63;61.52
63652;BME280;49801;37.536;-122.304;2022-12-07T00:02:35;101727.28;;;12.57;61.42
63652;BME280;49801;37.536;-122.304;2022-12-07T00:03:01;101723.56;;;12.59;61.09
63652;BME280;49801;37.536;-122.304;2022-12-07T00:03:27;101732.72;;;12.57;60.48
63652;BME280;49801;37.536;-122.304;2022-12-07T00:03:53;101725.56;;;12.56;60.69
63652;BME280;49801;37.536;-122.304;2022-12-07T00:04:22;101726.22;;;12.50;61.09
63652;BME280;49801;37.536;-122.304;2022-12-07T00:04:48;101729.63;;;12.52;61.21
63652;BME280;49801;37.536;-122.304;2022-12-07T00:05:14;101725.91;;;12.53;61.06
63652;BME280;49801;37.536;-122.304;2022-12-07T00:05:40;101729.94;;;12.49;61.42
63652;BME280;49801;37.536;-122.304;2022-12-07T00:06:06;101730.81;;;12.50;61.66
63652;BME280;49801;37.536;-122.304;2022-12-07T00:06:42;101729.63;;;12.52;61.96
63652;BME280;49801;37.536;-122.304;2022-12-07T00:07:08;101728.63;;;12.53;61.78
63652;BME280;49801;37.536;-122.304;2022-12-07T00:07:34;101725.56;;;12.56;61.97
63652;BME280;49801;37.536;-122.304;2022-12-07T00:08:00;101731.34;;;12.53;61.06
63652;BME280;49801;37.536;-122.304;2022-12-07T00:08:25;101733.19;;;12.53;61.31
63652;BME280;49801;37.536;-122.304;2022-12-07T00:08:51;101726.06;;;12.52;60.67
63652;BME280;49801;37.536;-122.304;2022-12-07T00:09:17;101728.63;;;12.53;60.79
63652;BME280;49801;37.536;-122.304;2022-12-07T00:09:43;101729.31;;;12.55;61.08
63652;BME280;49801;37.536;-122.304;2022-12-07T00:10:09;101725.53;;;12.48;60.41
63652;BME280;49801;37.536;-122.304;2022-12-07T00:10:35;101729.94;;;12.49;60.74
63652;BME280;49801;37.536;-122.304;2022-12-07T00:11:02;101726.53;;;12.47;60.74
63652;BME280;49801;37.536;-122.304;2022-12-07T00:11:28;101728.25;;;12.48;60.86
63652;BME280;49801;37.536;-122.304;2022-12-07T00:11:54;101734.38;;;12.50;60.82
63652;BME280;49801;37.536;-122.304;2022-12-07T00:12:20;101728.25;;;12.48;61.05
63652;BME280;49801;37.536;-122.304;2022-12-07T00:12:45;101728.78;;;12.52;61.18
63652;BME280;49801;37.536;-122.304;2022-12-07T00:13:11;101728.25;;;12.48;60.97
63652;BME280;49801;37.536;-122.304;2022-12-07T00:13:37;101731.66;;;12.50;61.19
63652;BME280;49801;37.536;-122.304;2022-12-07T00:14:05;101736.78;;;12.53;61.30
63652;BME280;49801;37.536;-122.304;2022-12-07T00:14:31;101736.78;;;12.53;61.41
63652;BME280;49801;37.536;-122.304;2022-12-07T00:14:56;101729.94;;;12.49;61.37
63652;BME280;49801;37.536;-122.304;2022-12-07T00:15:22;101736.25;;;12.50;61.47
63652;BME280;49801;37.536;-122.304;2022-12-07T00:15:48;101730.47;;;12.53;61.36
63652;BME280;49801;37.536;-122.304;2022-12-07T00:16:15;101732.50;;;12.51;61.27
63652;BME280;49801;37.536;-122.304;2022-12-07T00:16:41;101733.34;;;12.51;61.13
63652;BME280;49801;37.536;-122.304;2022-12-07T00:17:07;101737.78;;;12.52;61.27
63652;BME280;49801;37.536;-122.304;2022-12-07T00:17:32;101743.88;;;12.54;61.57
63652;BME280;49801;37.536;-122.304;2022-12-07T00:17:58;101732.81;;;12.48;61.22
63652;BME280;49801;37.536;-122.304;2022-12-07T00:18:24;101731.13;;;12.47;61.14
63652;BME280;49801;37.536;-122.304;2022-12-07T00:18:50;101739.44;;;12.45;61.33
63652;BME280;49801;37.536;-122.304;2022-12-07T00:19:16;101732.28;;;12.44;61.65
63652;BME280;49801;37.536;-122.304;2022-12-07T00:19:42;101739.75;;;12.42;62.00
63652;BME280;49801;37.536;-122.304;2022-12-07T00:20:08;101734.31;;;12.42;62.05
63652;BME280;49801;37.536;-122.304;2022-12-07T00:20:34;101739.75;;;12.42;61.85
63652;BME280;49801;37.536;-122.304;2022-12-07T00:21:00;101746.91;;;12.43;61.88
63652;BME280;49801;37.536;-122.304;2022-12-07T00:21:31;101738.00;;;12.33;61.44
63652;BME280;49801;37.536;-122.304;2022-12-07T00:21:57;101738.94;;;12.24;62.21
63652;BME280;49801;37.536;-122.304;2022-12-07T00:22:23;101738.78;;;12.25;62.32
63652;BME280;49801;37.536;-122.304;2022-12-07T00:22:49;101741.03;;;12.30;62.31
63652;BME280;49801;37.536;-122.304;2022-12-07T00:23:15;101743.38;;;12.25;62.26
63652;BME280;49801;37.536;-122.304;2022-12-07T00:23:41;101742.00;;;12.21;62.78
63652;BME280;49801;37.536;-122.304;2022-12-07T00:24:07;101746.25;;;12.23;62.59
63652;BME280;49801;37.536;-122.304;2022-12-07T00:24:33;101748.06;;;12.14;62.98
63652;BME280;49801;37.536;-122.304;2022-12-07T00:24:59;101742.31;;;12.17;63.25
63652;BME280;49801;37.536;-122.304;2022-12-07T00:25:24;101744.34;;;12.15;62.94
63652;BME280;49801;37.536;-122.304;2022-12-07T00:25:50;101747.75;;;12.17;62.90
63652;BME280;49801;37.536;-122.304;2022-12-07T00:26:17;101739.22;;;12.12;62.31
63652;BME280;49801;37.536;-122.304;2022-12-07T00:26:43;101746.34;;;12.13;62.50
63652;BME280;49801;37.536;-122.304;2022-12-07T00:27:10;101748.38;;;12.11;62.42
63652;BME280;49801;37.536;-122.304;2022-12-07T00:27:36;101748.06;;;12.14;62.58
63652;BME280;49801;37.536;-122.304;2022-12-07T00:28:02;101747.00;;;12.07;62.17
63652;BME280;49801;37.536;-122.304;2022-12-07T00:28:27;101742.19;;;12.01;62.35
63652;BME280;49801;37.536;-122.304;2022-12-07T00:28:55;101739.63;;;11.99;62.57
63652;BME280;49801;37.536;-122.304;2022-12-07T00:29:21;101743.91;;;12.02;62.26
63652;BME280;49801;37.536;-122.304;2022-12-07T00:29:49;101743.91;;;12.02;62.56
63652;BME280;49801;37.536;-122.304;2022-12-07T00:30:15;101740.00;;;12.05;62.74
63652;BME280;49801;37.536;-122.304;2022-12-07T00:30:40;101746.13;;;12.07;62.62
63652;BME280;49801;37.536;-122.304;2022-12-07T00:31:08;101743.25;;;12.08;62.70
63652;BME280;49801;37.536;-122.304;2022-12-07T00:31:35;101743.59;;;12.05;62.95
63652;BME280;49801;37.536;-122.304;2022-12-07T00:32:03;101749.31;;;12.02;62.85
63652;BME280;49801;37.536;-122.304;2022-12-07T00:32:29;101743.03;;;12.01;62.71
63652;BME280;49801;37.536;-122.304;2022-12-07T00:32:55;101737.78;;;12.00;62.99
63652;BME280;49801;37.536;-122.304;2022-12-07T00:33:21;101742.19;;;12.01;62.78
63652;BME280;49801;37.536;-122.304;2022-12-07T00:33:46;101751.00;;;12.03;62.93
63652;BME280;49801;37.536;-122.304;2022-12-07T00:34:14;101743.03;;;12.01;63.10
63652;BME280;49801;37.536;-122.304;2022-12-07T00:34:40;101742.50;;;11.98;63.31
63652;BME280;49801;37.536;-122.304;2022-12-07T00:35:06;101747.38;;;11.94;63.62
63652;BME280;49801;37.536;-122.304;2022-12-07T00:35:31;101744.50;;;11.96;63.64
63652;BME280;49801;37.536;-122.304;2022-12-07T00:35:58;101746.53;;;11.94;63.91
63652;BME280;49801;37.536;-122.304;2022-12-07T00:36:24;101744.81;;;11.93;63.61
63652;BME280;49801;37.536;-122.304;2022-12-07T00:36:50;101748.84;;;11.89;63.59
63652;BME280;49801;37.536;-122.304;2022-12-07T00:37:16;101745.44;;;11.87;63.56
63652;BME280;49801;37.536;-122.304;2022-12-07T00:37:41;101748.00;;;11.88;63.58
63652;BME280;49801;37.536;-122.304;2022-12-07T00:38:07;101753.19;;;11.81;63.31
63652;BME280;49801;37.536;-122.304;2022-12-07T00:38:34;101743.81;;;11.76;63.57
63652;BME280;49801;37.536;-122.304;2022-12-07T00:39:00;101745.50;;;11.77;63.80
63652;BME280;49801;37.536;-122.304;2022-12-07T00:39:27;101750.78;;;11.78;63.63
63652;BME280;49801;37.536;-122.304;2022-12-07T00:39:53;101746.69;;;11.74;63.57
63652;BME280;49801;37.536;-122.304;2022-12-07T00:40:19;101750.41;;;11.73;63.58
63652;BME280;49801;37.536;-122.304;2022-12-07T00:40:44;101746.69;;;11.74;63.76
63652;BME280;49801;37.536;-122.304;2022-12-07T00:41:22;101744.44;;;11.70;63.99
63652;BME280;49801;37.536;-122.304;2022-12-07T00:41:48;101756.13;;;11.70;63.95
63652;BME280;49801;37.536;-122.304;2022-12-07T00:42:14;101743.25;;;11.72;63.92
63652;BME280;49801;37.536;-122.304;2022-12-07T00:42:40;101746.84;;;11.73;63.96
63652;BME280;49801;37.536;-122.304;2022-12-07T00:43:05;101750.72;;;11.70;64.19
63652;BME280;49801;37.536;-122.304;2022-12-07T00:43:31;101757.16;;;11.69;64.05
63652;BME280;49801;37.536;-122.304;2022-12-07T00:43:57;101752.56;;;11.70;64.13
63652;BME280;49801;37.536;-122.304;2022-12-07T00:44:23;101750.16;;;11.67;64.23
63652;BME280;49801;37.536;-122.304;2022-12-07T00:44:49;101752.19;;;11.64;64.38
63652;BME280;49801;37.536;-122.304;2022-12-07T00:45:15;101750.47;;;11.63;64.46
63652;BME280;49801;37.536;-122.304;2022-12-07T00:45:40;101753.34;;;11.62;64.52
63652;BME280;49801;37.536;-122.304;2022-12-07T00:46:06;101753.34;;;11.62;64.59
63652;BME280;49801;37.536;-122.304;2022-12-07T00:46:32;101758.75;;;11.62;64.70
63652;BME280;49801;37.536;-122.304;2022-12-07T00:46:58;101760.47;;;11.63;64.56
63652;BME280;49801;37.536;-122.304;2022-12-07T00:47:24;101767.63;;;11.64;64.80
63652;BME280;49801;37.536;-122.304;2022-12-07T00:47:49;101752.34;;;11.63;64.72
63652;BME280;49801;37.536;-122.304;2022-12-07T00:48:15;101757.06;;;11.61;64.72
63652;BME280;49801;37.536;-122.304;2022-12-07T00:48:41;101767.09;;;11.60;64.56
63652;BME280;49801;37.536;-122.304;2022-12-07T00:49:07;101761.41;;;11.54;64.97
63652;BME280;49801;37.536;-122.304;2022-12-07T00:49:33;101761.56;;;11.52;65.06
63652;BME280;49801;37.536;-122.304;2022-12-07T00:49:58;101758.84;;;11.52;65.25
63652;BME280;49801;37.536;-122.304;2022-12-07T00:50:25;101758.84;;;11.52;65.07
63652;BME280;49801;37.536;-122.304;2022-12-07T00:50:51;101763.41;;;11.52;65.10
63652;BME280;49801;37.536;-122.304;2022-12-07T00:51:17;101765.13;;;11.53;65.00
63652;BME280;49801;37.536;-122.304;2022-12-07T00:51:44;101768.84;;;11.52;65.17
63652;BME280;49801;37.536;-122.304;2022-12-07T00:52:09;101767.97;;;11.51;64.98
63652;BME280;49801;37.536;-122.304;2022-12-07T00:52:35;101761.72;;;11.51;65.30
63652;BME280;49801;37.536;-122.304;2022-12-07T00:53:01;101762.72;;;11.50;65.60
63652;BME280;49801;37.536;-122.304;2022-12-07T00:53:27;101765.44;;;11.50;65.62
63652;BME280;49801;37.536;-122.304;2022-12-07T00:53:53;101762.03;;;11.48;65.81
63652;BME280;49801;37.536;-122.304;2022-12-07T00:54:18;101763.88;;;11.47;65.69
63652;BME280;49801;37.536;-122.304;2022-12-07T00:54:44;101765.72;;;11.47;66.06
63652;BME280;49801;37.536;-122.304;2022-12-07T00:55:10;101771.47;;;11.43;66.13
63652;BME280;49801;37.536;-122.304;2022-12-07T00:55:36;101766.06;;;11.43;66.22
63652;BME280;49801;37.536;-122.304;2022-12-07T00:56:12;101766.91;;;11.44;66.24
63652;BME280;49801;37.536;-122.304;2022-12-07T00:56:38;101766.34;;;11.40;66.55
63652;BME280;49801;37.536;-122.304;2022-12-07T00:57:04;101764.50;;;11.41;66.73
63652;BME280;49801;37.536;-122.304;2022-12-07T00:57:30;101762.94;;;11.38;66.88
63652;BME280;49801;37.536;-122.304;2022-12-07T00:57:55;101763.94;;;11.37;67.01
63652;BME280;49801;37.536;-122.304;2022-12-07T00:58:22;101764.97;;;11.36;67.27
63652;BME280;49801;37.536;-122.304;2022-12-07T00:58:57;101772.09;;;11.37;67.18
63652;BME280;49801;37.536;-122.304;2022-12-07T00:59:23;101771.25;;;11.37;67.26
63652;BME280;49801;37.536;-122.304;2022-12-07T00:59:49;101770.41;;;11.36;67.27
63652;BME280;49801;37.536;-122.304;2022-12-07T01:00:15;101773.09;;;11.36;67.50
63652;BME280;49801;37.536;-122.304;2022-12-07T01:00:41;101772.38;;;11.34;67.75
63652;BME280;49801;37.536;-122.304;2022-12-07T01:01:07;101770.16;;;11.30;68.25
63652;BME280;49801;37.536;-122.304;2022-12-07T01:01:35;101770.28;;;11.28;68.93
63652;BME280;49801;37.536;-122.304;2022-12-07T01:02:02;101763.84;;;11.29;68.64
63652;BME280;49801;37.536;-122.304;2022-12-07T01:02:27;101769.59;;;11.26;68.84
63652;BME280;49801;37.536;-122.304;2022-12-07T01:02:53;101773.91;;;11.19;69.53
63652;BME280;49801;37.536;-122.304;2022-12-07T01:03:19;101767.78;;;11.17;69.55
63652;BME280;49801;37.536;-122.304;2022-12-07T01:03:45;101773.34;;;11.15;69.98
63652;BME280;49801;37.536;-122.304;2022-12-07T01:04:11;101776.22;;;11.14;70.18
63652;BME280;49801;37.536;-122.304;2022-12-07T01:04:36;101773.34;;;11.15;70.08
63652;BME280;49801;37.536;-122.304;2022-12-07T01:05:02;101770.78;;;11.14;70.76
63652;BME280;49801;37.536;-122.304;2022-12-07T01:05:28;101774.81;;;11.10;70.87
63652;BME280;49801;37.536;-122.304;2022-12-07T01:05:54;101776.13;;;11.05;71.11
63652;BME280;49801;37.536;-122.304;2022-12-07T01:06:21;101778.84;;;11.05;70.81
63652;BME280;49801;37.536;-122.304;2022-12-07T01:06:47;101777.72;;;10.98;72.03
63652;BME280;49801;37.536;-122.304;2022-12-07T01:07:13;101775.63;;;10.92;72.36
63652;BME280;49801;37.536;-122.304;2022-12-07T01:07:38;101771.88;;;10.93;72.14
63652;BME280;49801;37.536;-122.304;2022-12-07T01:08:05;101778.03;;;10.95;71.94
63652;BME280;49801;37.536;-122.304;2022-12-07T01:08:31;101777.31;;;10.93;72.24
63652;BME280;49801;37.536;-122.304;2022-12-07T01:08:57;101771.88;;;10.93;72.38
63652;BME280;49801;37.536;-122.304;2022-12-07T01:09:23;101780.03;;;10.93;72.20
63652;BME280;49801;37.536;-122.304;2022-12-07T01:09:49;101773.75;;;10.93;72.36
63652;BME280;49801;37.536;-122.304;2022-12-07T01:10:15;101775.91;;;10.89;72.60
63652;BME280;49801;37.536;-122.304;2022-12-07T01:10:41;101773.50;;;10.86;72.97
63652;BME280;49801;37.536;-122.304;2022-12-07T01:11:07;101778.06;;;10.85;72.62
63652;BME280;49801;37.536;-122.304;2022-12-07T01:11:33;101780.94;;;10.84;73.04
63652;BME280;49801;37.536;-122.304;2022-12-07T01:11:58;101776.50;;;10.83;72.91
63652;BME280;49801;37.536;-122.304;2022-12-07T01:12:24;101774.13;;;10.80;73.15
63652;BME280;49801;37.536;-122.304;2022-12-07T01:12:50;101778.81;;;10.78;73.42
63652;BME280;49801;37.536;-122.304;2022-12-07T01:13:16;101779.81;;;10.77;73.65
63652;BME280;49801;37.536;-122.304;2022-12-07T01:13:42;101777.69;;;10.70;74.21
63652;BME280;49801;37.536;-122.304;2022-12-07T01:14:08;101782.13;;;10.72;74.01
63652;BME280;49801;37.536;-122.304;2022-12-07T01:14:34;101774.97;;;10.70;74.12
63652;BME280;49801;37.536;-122.304;2022-12-07T01:15:00;101780.41;;;10.70;74.00
63652;BME280;49801;37.536;-122.304;2022-12-07T01:15:25;101783.09;;;10.70;74.13
63652;BME280;49801;37.536;-122.304;2022-12-07T01:15:51;101782.41;;;10.68;74.20
63652;BME280;49801;37.536;-122.304;2022-12-07T01:16:17;101774.56;;;10.65;74.23
63652;BME280;49801;37.536;-122.304;2022-12-07T01:16:44;101779.28;;;10.63;74.83
63652;BME280;49801;37.536;-122.304;2022-12-07T01:17:09;101778.59;;;10.61;74.65
63652;BME280;49801;37.536;-122.304;2022-12-07T01:17:35;101777.91;;;10.59;74.60
63652;BME280;49801;37.536;-122.304;2022-12-07T01:18:01;101776.16;;;10.58;74.92
63652;BME280;49801;37.536;-122.304;2022-12-07T01:18:27;101778.88;;;10.58;74.99
63652;BME280;49801;37.536;-122.304;2022-12-07T01:18:54;101778.19;;;10.56;74.92
63652;BME280;49801;37.536;-122.304;2022-12-07T01:19:20;101785.59;;;10.54;75.11
63652;BME280;49801;37.536;-122.304;2022-12-07T01:19:45;101787.63;;;10.52;75.37
63652;BME280;49801;37.536;-122.304;2022-12-07T01:20:11;101781.47;;;10.50;75.62
63652;BME280;49801;37.536;-122.304;2022-12-07T01:20:37;101782.47;;;10.49;75.58
63652;BME280;49801;37.536;-122.304;2022-12-07T01:21:09;101785.34;;;10.47;75.41
63652;BME280;49801;37.536;-122.304;2022-12-07T01:21:36;101780.22;;;10.44;75.80
63652;BME280;49801;37.536;-122.304;2022-12-07T01:22:03;101775.94;;;10.42;75.84
63652;BME280;49801;37.536;-122.304;2022-12-07T01:22:29;101783.34;;;10.40;76.16
63652;BME280;49801;37.536;-122.304;2022-12-07T01:22:55;101784.38;;;10.39;75.90
63652;BME280;49801;37.536;-122.304;2022-12-07T01:23:20;101790.06;;;10.36;76.20
63652;BME280;49801;37.536;-122.304;2022-12-07T01:23:46;101778.53;;;10.34;76.15
63652;BME280;49801;37.536;-122.304;2022-12-07T01:24:12;101784.19;;;10.30;76.61
63652;BME280;49801;37.536;-122.304;2022-12-07T01:24:38;101789.91;;;10.27;76.86
63652;BME280;49801;37.536;-122.304;2022-12-07T01:25:04;101781.34;;;10.22;77.51
63652;BME280;49801;37.536;-122.304;2022-12-07T01:25:30;101785.94;;;10.22;77.17
63652;BME280;49801;37.536;-122.304;2022-12-07T01:25:57;101781.63;;;10.19;77.17
63652;BME280;49801;37.536;-122.304;2022-12-07T01:26:24;101787.06;;;10.19;77.33
63652;BME280;49801;37.536;-122.304;2022-12-07T01:26:49;101781.78;;;10.18;77.20
63652;BME280;49801;37.536;-122.304;2022-12-07T01:27:15;101782.94;;;10.15;77.56
63652;BME280;49801;37.536;-122.304;2022-12-07T01:27:41;101788.50;;;10.13;77.58
63652;BME280;49801;37.536;-122.304;2022-12-07T01:28:07;101779.81;;;10.10;77.61
63652;BME280;49801;37.536;-122.304;2022-12-07T01:28:33;101784.53;;;10.08;77.92
63652;BME280;49801;37.536;-122.304;2022-12-07T01:28:59;101790.06;;;10.06;78.13
63652;BME280;49801;37.536;-122.304;2022-12-07T01:29:25;101787.50;;;10.05;78.39
63652;BME280;49801;37.536;-122.304;2022-12-07T01:29:51;101782.22;;;10.03;78.30
63652;BME280;49801;37.536;-122.304;2022-12-07T01:30:17;101785.09;;;10.02;78.71
63652;BME280;49801;37.536;-122.304;2022-12-07T01:30:43;101788.81;;;10.01;78.31
63652;BME280;49801;37.536;-122.304;2022-12-07T01:31:10;101781.66;;;10.00;78.71
63652;BME280;49801;37.536;-122.304;2022-12-07T01:31:37;101782.81;;;9.97;79.14
63652;BME280;49801;37.536;-122.304;2022-12-07T01:32:02;101787.63;;;9.93;79.10
63652;BME280;49801;37.536;-122.304;2022-12-07T01:32:28;101785.94;;;9.92;78.82
63652;BME280;49801;37.536;-122.304;2022-12-07T01:32:54;101781.66;;;9.90;79.16
63652;BME280;49801;37.536;-122.304;2022-12-07T01:33:20;101781.81;;;9.88;78.94
63652;BME280;49801;37.536;-122.304;2022-12-07T01:33:47;101789.91;;;9.88;79.18
63652;BME280;49801;37.536;-122.304;2022-12-07T01:34:13;101784.69;;;9.87;79.26
63652;BME280;49801;37.536;-122.304;2022-12-07T01:34:39;101786.66;;;9.85;79.16
63652;BME280;49801;37.536;-122.304;2022-12-07T01:35:05;101790.50;;;9.82;79.56
63652;BME280;49801;37.536;-122.304;2022-12-07T01:35:33;101785.38;;;9.79;80.03
63652;BME280;49801;37.536;-122.304;2022-12-07T01:36:05;101782.09;;;9.75;80.22
63652;BME280;49801;37.536;-122.304;2022-12-07T01:36:32;101779.53;;;9.74;80.10
63652;BME280;49801;37.536;-122.304;2022-12-07T01:36:59;101785.94;;;9.73;80.09
63652;BME280;49801;37.536;-122.304;2022-12-07T01:37:25;101788.81;;;9.71;80.33
63652;BME280;49801;37.536;-122.304;2022-12-07T01:37:50;101792.34;;;9.72;80.38
63652;BME280;49801;37.536;-122.304;2022-12-07T01:38:16;101790.63;;;9.71;80.54
63652;BME280;49801;37.536;-122.304;2022-12-07T01:38:42;101789.94;;;9.69;80.40
63652;BME280;49801;37.536;-122.304;2022-12-07T01:39:08;101794.75;;;9.65;80.67
63652;BME280;49801;37.536;-122.304;2022-12-07T01:39:34;101786.78;;;9.64;80.42
63652;BME280;49801;37.536;-122.304;2022-12-07T01:40:00;101792.19;;;9.64;80.77
63652;BME280;49801;37.536;-122.304;2022-12-07T01:40:26;101792.47;;;9.61;80.47
63652;BME280;49801;37.536;-122.304;2022-12-07T01:40:55;101790.78;;;9.60;80.71
63652;BME280;49801;37.536;-122.304;2022-12-07T01:41:21;101793.75;;;9.56;80.75
63652;BME280;49801;37.536;-122.304;2022-12-07T01:41:46;101796.75;;;9.53;80.85
63652;BME280;49801;37.536;-122.304;2022-12-07T01:42:12;101795.06;;;9.52;81.11
63652;BME280;49801;37.536;-122.304;2022-12-07T01:42:38;101788.75;;;9.52;81.38
63652;BME280;49801;37.536;-122.304;2022-12-07T01:43:08;101786.19;;;9.50;81.02
63652;BME280;49801;37.536;-122.304;2022-12-07T01:44:06;101794.44;;;9.49;81.36
63652;BME280;49801;37.536;-122.304;2022-12-07T01:44:23;101791.91;;;9.47;81.23
63652;BME280;49801;37.536;-122.304;2022-12-07T01:45:36;101797.88;;;9.41;81.30
63652;BME280;49801;37.536;-122.304;2022-12-07T01:46:03;101797.88;;;9.41;81.42
63652;BME280;49801;37.536;-122.304;2022-12-07T01:46:29;101799.84;;;9.39;81.65
63652;BME280;49801;37.536;-122.304;2022-12-07T01:46:55;101792.72;;;9.38;81.89
63652;BME280;49801;37.536;-122.304;2022-12-07T01:47:21;101802.97;;;9.34;81.92
63652;BME280;49801;37.536;-122.304;2022-12-07T01:47:51;101805.81;;;9.33;81.84
63652;BME280;49801;37.536;-122.304;2022-12-07T01:48:20;101801.41;;;9.32;82.07
63652;BME280;49801;37.536;-122.304;2022-12-07T01:48:47;101796.16;;;9.30;81.89
63652;BME280;49801;37.536;-122.304;2022-12-07T01:49:17;101798.97;;;9.29;81.84
63652;BME280;49801;37.536;-122.304;2022-12-07T01:49:45;101801.94;;;9.26;81.94
63652;BME280;49801;37.536;-122.304;2022-12-07T01:50:13;101802.09;;;9.24;82.15
63652;BME280;49801;37.536;-122.304;2022-12-07T01:50:39;101799.53;;;9.23;82.10
63652;BME280;49801;37.536;-122.304;2022-12-07T01:51:08;101794.38;;;9.19;82.25
63652;BME280;49801;37.536;-122.304;2022-12-07T01:51:35;101800.09;;;9.16;82.38
63652;BME280;49801;37.536;-122.304;2022-12-07T01:52:16;101796.66;;;9.14;82.43
63652;BME280;49801;37.536;-122.304;2022-12-07T01:52:43;101804.03;;;9.12;82.70
63652;BME280;49801;37.536;-122.304;2022-12-07T01:53:10;101800.63;;;9.10;83.36
63652;BME280;49801;37.536;-122.304;2022-12-07T01:53:37;101798.91;;;9.09;83.37
63652;BME280;49801;37.536;-122.304;2022-12-07T01:54:03;101797.22;;;9.08;83.25
63652;BME280;49801;37.536;-122.304;2022-12-07T01:54:30;101800.91;;;9.07;83.06
63652;BME280;49801;37.536;-122.304;2022-12-07T01:54:57;101799.19;;;9.06;83.47
63652;BME280;49801;37.536;-122.304;2022-12-07T01:55:25;101797.47;;;9.05;83.33
63652;BME280;49801;37.536;-122.304;2022-12-07T01:55:51;101798.47;;;9.04;83.72
63652;BME280;49801;37.536;-122.304;2022-12-07T01:56:18;101798.63;;;9.03;83.28
63652;BME280;49801;37.536;-122.304;2022-12-07T01:56:48;101800.44;;;9.02;83.42
63652;BME280;49801;37.536;-122.304;2022-12-07T01:57:16;101796.06;;;9.01;83.59
63652;BME280;49801;37.536;-122.304;2022-12-07T01:57:47;101799.75;;;9.00;83.66
63652;BME280;49801;37.536;-122.304;2022-12-07T01:58:14;101798.00;;;8.99;83.29
63652;BME280;49801;37.536;-122.304;2022-12-07T01:58:40;101798.00;;;8.99;83.82
63652;BME280;49801;37.536;-122.304;2022-12-07T01:59:06;101800.00;;;8.97;83.62
63652;BME280;49801;37.536;-122.304;2022-12-07T01:59:32;101801.00;;;8.96;83.52
63652;BME280;49801;37.536;-122.304;2022-12-07T01:59:57;101796.59;;;8.95;83.56
63652;BME280;49801;37.536;-122.304;2022-12-07T02:00:24;101801.16;;;8.94;83.93
63652;BME280;49801;37.536;-122.304;2022-12-07T02:00:50;101795.16;;;8.91;84.05
63652;BME280;49801;37.536;-122.304;2022-12-07T02:01:15;101796.00;;;8.91;83.90
63652;BME280;49801;37.536;-122.304;2022-12-07T02:01:42;101794.28;;;8.90;84.13
63652;BME280;49801;37.536;-122.304;2022-12-07T02:02:10;101791.72;;;8.89;84.22
63652;BME280;49801;37.536;-122.304;2022-12-07T02:03:22;101798.25;;;8.86;84.07
63652;BME280;49801;37.536;-122.304;2022-12-07T02:03:49;101800.13;;;8.86;84.25
63652;BME280;49801;37.536;-122.304;2022-12-07T02:04:15;101803.78;;;8.85;84.32
63652;BME280;49801;37.536;-122.304;2022-12-07T02:04:41;101799.38;;;8.83;84.02
63652;BME280;49801;37.536;-122.304;2022-12-07T02:05:06;101803.09;;;8.82;84.29
63652;BME280;49801;37.536;-122.304;2022-12-07T02:05:33;101799.66;;;8.80;84.17
63652;BME280;49801;37.536;-122.304;2022-12-07T02:05:59;101803.34;;;8.79;84.13
63652;BME280;49801;37.536;-122.304;2022-12-07T02:06:25;101807.03;;;8.78;84.01
63652;BME280;49801;37.536;-122.304;2022-12-07T02:06:51;101805.34;;;8.77;84.37
63652;BME280;49801;37.536;-122.304;2022-12-07T02:07:17;101798.22;;;8.76;84.51
63652;BME280;49801;37.536;-122.304;2022-12-07T02:07:44;101803.75;;;8.75;84.39
63652;BME280;49801;37.536;-122.304;2022-12-07T02:08:12;101803.91;;;8.73;84.52
63652;BME280;49801;37.536;-122.304;2022-12-07T02:08:38;101802.31;;;8.71;84.16
63652;BME280;49801;37.536;-122.304;2022-12-07T02:09:04;101802.44;;;8.69;84.33
63652;BME280;49801;37.536;-122.304;2022-12-07T02:09:30;101806.16;;;8.68;84.42
63652;BME280;49801;37.536;-122.304;2022-12-07T02:09:56;101804.44;;;8.67;84.59
63652;BME280;49801;37.536;-122.304;2022-12-07T02:10:23;101813.50;;;8.66;84.19
63652;BME280;49801;37.536;-122.304;2022-12-07T02:10:49;101815.50;;;8.64;84.43
63652;BME280;49801;37.536;-122.304;2022-12-07T02:11:15;101811.09;;;8.63;84.31
63652;BME280;49801;37.536;-122.304;2022-12-07T02:11:41;101810.34;;;8.61;84.45
63652;BME280;49801;37.536;-122.304;2022-12-07T02:12:07;101811.34;;;8.60;84.64
63652;BME280;49801;37.536;-122.304;2022-12-07T02:12:33;101809.63;;;8.59;84.57
63652;BME280;49801;37.536;-122.304;2022-12-07T02:13:03;101763.56;;;8.30;84.37
63652;BME280;49801;37.536;-122.304;2022-12-07T02:13:31;101812.59;;;8.56;84.49
63652;BME280;49801;37.536;-122.304;2022-12-07T02:13:57;101810.91;;;8.55;84.62
63652;BME280;49801;37.536;-122.304;2022-12-07T02:14:23;101814.59;;;8.54;84.76
63652;BME280;49801;37.536;-122.304;2022-12-07T02:14:49;101814.59;;;8.54;84.64
63652;BME280;49801;37.536;-122.304;2022-12-07T02:15:16;101811.16;;;8.52;84.70
63652;BME280;49801;37.536;-122.304;2022-12-07T02:17:21;101824.19;;;8.47;85.11